sensor_id;sensor_type;location;lat;lon;timestamp;pressure;altitude;pressure_sealevel;temperature;humidity
70954;BME280;58618;47.490;8.736;2023-02-04T00:00:12;98044.72;;;4.90;100.00
70954;BME280;58618;47.490;8.736;2023-02-04T00:02:41;98033.09;;;4.94;100.00
70954;BME280;58618;47.490;8.736;2023-02-04T00:05:10;98037.63;;;4.79;100.00
70954;BME280;58618;47.490;8.736;2023-02-04T00:07:38;98043.34;;;4.67;100.00
70954;BME280;58618;47.490;8.736;2023-02-04T00:10:06;98044.88;;;4.55;100.00
70954;BME280;58618;47.490;8.736;2023-02-04T00:12:33;98048.44;;;4.54;100.00
70954;BME280;58618;47.490;8.736;2023-02-04T00:15:02;98038.22;;;4.54;100.00
70954;BME280;58618;47.490;8.736;2023-02-04T00:17:29;98040.00;;;4.67;100.00
70954;BME280;58618;47.490;8.736;2023-02-04T00:19:57;98044.13;;;4.68;100.00
70954;BME280;58618;47.490;8.736;2023-02-04T00:22:25;98038.41;;;4.73;100.00
70954;BME280;58618;47.490;8.736;2023-02-04T00:24:54;98040.19;;;4.72;100.00
70954;BME280;58618;47.490;8.736;2023-02-04T00:27:22;98038.81;;;4.70;100.00
70954;BME280;58618;47.490;8.736;2023-02-04T00:29:49;98041.78;;;4.60;100.00
70954;BME280;58618;47.490;8.736;2023-02-04T00:32:17;98041.16;;;4.51;100.00
70954;BME280;58618;47.490;8.736;2023-02-04T00:34:44;98034.50;;;4.44;100.00
70954;BME280;58618;47.490;8.736;2023-02-04T00:37:13;98024.84;;;4.52;100.00
70954;BME280;58618;47.490;8.736;2023-02-04T00:39:40;98009.94;;;4.49;100.00
70954;BME280;58618;47.490;8.736;2023-02-04T00:42:08;98021.13;;;4.48;100.00
70954;BME280;58618;47.490;8.736;2023-02-04T00:44:35;98016.59;;;4.44;100.00
70954;BME280;58618;47.490;8.736;2023-02-04T00:47:03;98023.28;;;4.38;100.00
70954;BME280;58618;47.490;8.736;2023-02-04T00:49:32;98027.38;;;4.39;100.00
70954;BME280;58618;47.490;8.736;2023-02-04T00:52:00;98031.53;;;4.40;100.00
70954;BME280;58618;47.490;8.736;2023-02-04T00:54:28;98006.78;;;4.28;100.00
70954;BME280;58618;47.490;8.736;2023-02-04T00:56:56;98020.13;;;4.36;100.00
70954;BME280;58618;47.490;8.736;2023-02-04T00:59:23;98021.28;;;4.34;100.00
70954;BME280;58618;47.490;8.736;2023-02-04T01:01:50;98032.91;;;4.36;100.00
70954;BME280;58618;47.490;8.736;2023-02-04T01:04:18;98043.50;;;4.33;100.00
70954;BME280;58618;47.490;8.736;2023-02-04T01:06:46;98028.34;;;4.25;100.00
70954;BME280;58618;47.490;8.736;2023-02-04T01:09:13;98027.97;;;4.35;100.00
70954;BME280;58618;47.490;8.736;2023-02-04T01:11:41;98031.91;;;4.37;100.00
70954;BME280;58618;47.490;8.736;2023-02-04T01:14:09;98030.34;;;4.36;100.00
70954;BME280;58618;47.490;8.736;2023-02-04T01:16:36;98034.69;;;4.42;100.00
70954;BME280;58618;47.490;8.736;2023-02-04T01:19:03;98035.03;;;4.39;100.00
70954;BME280;58618;47.490;8.736;2023-02-04T01:21:31;98034.69;;;4.42;100.00
70954;BME280;58618;47.490;8.736;2023-02-04T01:23:58;98027.22;;;4.47;100.00
70954;BME280;58618;47.490;8.736;2023-02-04T01:26:25;98038.00;;;4.36;100.00
70954;BME280;58618;47.490;8.736;2023-02-04T01:28:53;98041.72;;;4.40;100.00
70954;BME280;58618;47.490;8.736;2023-02-04T01:31:21;98031.53;;;4.40;100.00
70954;BME280;58618;47.490;8.736;2023-02-04T01:33:54;98034.28;;;4.52;100.00
70954;BME280;58618;47.490;8.736;2023-02-04T01:36:21;98046.09;;;4.59;100.00
70954;BME280;58618;47.490;8.736;2023-02-04T01:38:48;98051.59;;;4.43;100.00
70954;BME280;58618;47.490;8.736;2023-02-04T01:41:16;98048.03;;;4.38;100.00
70954;BME280;58618;47.490;8.736;2023-02-04T01:43:44;98038.97;;;4.35;100.00
70954;BME280;58618;47.490;8.736;2023-02-04T01:46:13;98021.31;;;4.40;100.00
70954;BME280;58618;47.490;8.736;2023-02-04T01:48:40;98028.41;;;4.58;100.00
70954;BME280;58618;47.490;8.736;2023-02-04T01:51:11;98034.69;;;4.42;100.00
70954;BME280;58618;47.490;8.736;2023-02-04T01:53:40;98037.03;;;4.37;100.00
70954;BME280;58618;47.490;8.736;2023-02-04T01:56:14;98033.88;;;4.35;100.00
70954;BME280;58618;47.490;8.736;2023-02-04T01:58:42;98031.16;;;4.43;100.00
70954;BME280;58618;47.490;8.736;2023-02-04T02:01:10;98031.53;;;4.53;100.00
70954;BME280;58618;47.490;8.736;2023-02-04T02:03:41;98032.31;;;4.47;100.00
70954;BME280;58618;47.490;8.736;2023-02-04T02:06:09;98021.31;;;4.40;100.00
70954;BME280;58618;47.490;8.736;2023-02-04T02:08:36;98021.31;;;4.53;100.00
70954;BME280;58618;47.490;8.736;2023-02-04T02:11:04;98030.75;;;4.59;100.00
70954;BME280;58618;47.490;8.736;2023-02-04T02:13:32;98015.63;;;4.64;100.00
70954;BME280;58618;47.490;8.736;2023-02-04T02:15:59;98022.47;;;4.71;100.00
70954;BME280;58618;47.490;8.736;2023-02-04T02:18:26;98018.56;;;4.55;100.00
70954;BME280;58618;47.490;8.736;2023-02-04T02:20:57;98023.66;;;4.61;100.00
70954;BME280;58618;47.490;8.736;2023-02-04T02:23:41;98017.19;;;4.65;100.00
70954;BME280;58618;47.490;8.736;2023-02-04T02:26:11;98018.38;;;4.70;100.00
70954;BME280;58618;47.490;8.736;2023-02-04T02:28:38;98008.53;;;4.66;100.00
70954;BME280;58618;47.490;8.736;2023-02-04T02:31:06;98021.31;;;4.66;100.00
70954;BME280;58618;47.490;8.736;2023-02-04T02:33:34;98010.50;;;4.71;100.00
70954;BME280;58618;47.490;8.736;2023-02-04T02:36:01;98003.63;;;4.72;100.00
70954;BME280;58618;47.490;8.736;2023-02-04T02:38:28;98001.28;;;4.70;100.00
70954;BME280;58618;47.490;8.736;2023-02-04T02:40:57;98001.28;;;4.70;100.00
70954;BME280;58618;47.490;8.736;2023-02-04T02:43:26;98003.22;;;4.75;100.00
70954;BME280;58618;47.490;8.736;2023-02-04T02:45:56;98003.22;;;4.75;100.00
70954;BME280;58618;47.490;8.736;2023-02-04T02:48:24;98000.88;;;4.73;100.00
70954;BME280;58618;47.490;8.736;2023-02-04T02:50:52;97988.88;;;4.74;100.00
70954;BME280;58618;47.490;8.736;2023-02-04T02:53:20;97987.50;;;4.78;100.00
70954;BME280;58618;47.490;8.736;2023-02-04T02:55:47;97991.41;;;4.87;100.00
70954;BME280;58618;47.490;8.736;2023-02-04T02:58:27;97993.78;;;4.95;100.00
70954;BME280;58618;47.490;8.736;2023-02-04T03:00:58;98002.81;;;4.91;100.00
70954;BME280;58618;47.490;8.736;2023-02-04T03:03:29;98003.19;;;5.01;100.00
70954;BME280;58618;47.490;8.736;2023-02-04T03:06:00;98016.56;;;5.03;100.00
70954;BME280;58618;47.490;8.736;2023-02-04T03:08:29;98013.63;;;4.93;100.00
70954;BME280;58618;47.490;8.736;2023-02-04T03:10:56;98009.31;;;4.87;100.00
70954;BME280;58618;47.490;8.736;2023-02-04T03:13:25;98015.81;;;4.89;100.00
70954;BME280;58618;47.490;8.736;2023-02-04T03:15:52;98011.44;;;5.03;100.00
70954;BME280;58618;47.490;8.736;2023-02-04T03:18:20;98016.97;;;5.00;100.00
70954;BME280;58618;47.490;8.736;2023-02-04T03:20:48;98016.19;;;4.93;100.00
70954;BME280;58618;47.490;8.736;2023-02-04T03:23:16;98010.28;;;4.92;100.00
70954;BME280;58618;47.490;8.736;2023-02-04T03:25:44;98012.44;;;5.02;100.00
70954;BME280;58618;47.490;8.736;2023-02-04T03:28:12;98019.72;;;4.98;100.00
70954;BME280;58618;47.490;8.736;2023-02-04T03:30:40;98025.63;;;4.99;100.00
70954;BME280;58618;47.490;8.736;2023-02-04T03:33:07;98027.19;;;5.00;100.00
70954;BME280;58618;47.490;8.736;2023-02-04T03:35:35;98023.63;;;5.14;100.00
70954;BME280;58618;47.490;8.736;2023-02-04T03:38:03;98015.75;;;5.02;100.00
70954;BME280;58618;47.490;8.736;2023-02-04T03:40:30;98020.13;;;5.02;100.00
70954;BME280;58618;47.490;8.736;2023-02-04T03:42:57;98014.59;;;5.05;100.00
70954;BME280;58618;47.490;8.736;2023-02-04T03:45:24;98018.91;;;5.04;100.00
70954;BME280;58618;47.490;8.736;2023-02-04T03:47:53;98021.66;;;5.03;100.00
70954;BME280;58618;47.490;8.736;2023-02-04T03:50:20;98025.25;;;5.02;100.00
70954;BME280;58618;47.490;8.736;2023-02-04T03:52:48;98026.78;;;5.03;100.00
70954;BME280;58618;47.490;8.736;2023-02-04T03:55:18;98032.50;;;5.05;100.00
70954;BME280;58618;47.490;8.736;2023-02-04T03:57:47;98032.50;;;5.12;100.00
70954;BME280;58618;47.490;8.736;2023-02-04T04:00:14;98029.34;;;5.16;100.00
70954;BME280;58618;47.490;8.736;2023-02-04T04:02:41;98018.69;;;5.19;100.00
70954;BME280;58618;47.490;8.736;2023-02-04T04:05:10;98028.34;;;5.17;100.00
70954;BME280;58618;47.490;8.736;2023-02-04T04:07:37;98018.88;;;5.24;100.00
70954;BME280;58618;47.490;8.736;2023-02-04T04:10:06;98020.44;;;5.32;100.00
70954;BME280;58618;47.490;8.736;2023-02-04T04:12:33;98025.94;;;5.35;100.00
70954;BME280;58618;47.490;8.736;2023-02-04T04:15:00;98021.25;;;5.19;100.00
70954;BME280;58618;47.490;8.736;2023-02-04T04:17:27;98026.00;;;5.09;100.00
70954;BME280;58618;47.490;8.736;2023-02-04T04:19:54;98026.00;;;5.09;100.00
70954;BME280;58618;47.490;8.736;2023-02-04T04:22:23;98027.56;;;5.10;100.00
70954;BME280;58618;47.490;8.736;2023-02-04T04:24:50;98021.44;;;5.24;100.00
70954;BME280;58618;47.490;8.736;2023-02-04T04:27:18;98020.25;;;5.27;100.00
70954;BME280;58618;47.490;8.736;2023-02-04T04:29:45;98027.16;;;5.26;100.00
70954;BME280;58618;47.490;8.736;2023-02-04T04:32:12;98021.44;;;5.24;100.00
70954;BME280;58618;47.490;8.736;2023-02-04T04:34:40;98017.91;;;5.25;100.00
70954;BME280;58618;47.490;8.736;2023-02-04T04:37:07;98011.59;;;5.28;100.00
70954;BME280;58618;47.490;8.736;2023-02-04T04:39:35;98008.88;;;5.16;100.00
70954;BME280;58618;47.490;8.736;2023-02-04T04:42:03;98014.59;;;5.18;100.00
70954;BME280;58618;47.490;8.736;2023-02-04T04:44:30;98008.28;;;5.14;100.00
70954;BME280;58618;47.490;8.736;2023-02-04T04:46:57;98011.44;;;5.23;100.00
70954;BME280;58618;47.490;8.736;2023-02-04T04:49:24;98007.47;;;5.27;100.00
70954;BME280;58618;47.490;8.736;2023-02-04T04:51:54;98014.94;;;5.28;100.00
70954;BME280;58618;47.490;8.736;2023-02-04T04:54:21;98016.91;;;5.26;100.00
70954;BME280;58618;47.490;8.736;2023-02-04T04:56:50;98014.53;;;5.31;100.00
70954;BME280;58618;47.490;8.736;2023-02-04T04:59:17;98017.31;;;5.23;100.00
70954;BME280;58618;47.490;8.736;2023-02-04T05:01:44;98017.69;;;5.27;100.00
70954;BME280;58618;47.490;8.736;2023-02-04T05:04:11;98024.03;;;5.18;100.00
70954;BME280;58618;47.490;8.736;2023-02-04T05:06:38;98017.75;;;5.07;100.00
70954;BME280;58618;47.490;8.736;2023-02-04T05:09:06;98016.16;;;5.06;100.00
70954;BME280;58618;47.490;8.736;2023-02-04T05:11:34;98022.06;;;5.06;100.00
70954;BME280;58618;47.490;8.736;2023-02-04T05:14:03;98029.34;;;5.03;100.00
70954;BME280;58618;47.490;8.736;2023-02-04T05:16:31;98026.00;;;5.16;100.00
70954;BME280;58618;47.490;8.736;2023-02-04T05:18:58;98023.59;;;5.27;100.00
70954;BME280;58618;47.490;8.736;2023-02-04T05:21:25;98011.44;;;5.16;100.00
70954;BME280;58618;47.490;8.736;2023-02-04T05:23:53;98016.91;;;5.26;100.00
70954;BME280;58618;47.490;8.736;2023-02-04T05:26:20;98018.50;;;5.27;100.00
70954;BME280;58618;47.490;8.736;2023-02-04T05:28:47;98027.94;;;5.14;100.00
70954;BME280;58618;47.490;8.736;2023-02-04T05:31:16;98019.69;;;5.18;100.00
70954;BME280;58618;47.490;8.736;2023-02-04T05:33:43;98012.22;;;5.17;100.00
70954;BME280;58618;47.490;8.736;2023-02-04T05:36:10;98018.88;;;5.24;100.00
70954;BME280;58618;47.490;8.736;2023-02-04T05:38:37;98013.38;;;5.27;100.00
70954;BME280;58618;47.490;8.736;2023-02-04T05:41:04;98010.22;;;5.19;100.00
70954;BME280;58618;47.490;8.736;2023-02-04T05:43:31;98032.50;;;5.18;100.00
70954;BME280;58618;47.490;8.736;2023-02-04T05:45:58;98033.06;;;5.14;100.00
70954;BME280;58618;47.490;8.736;2023-02-04T05:48:27;98028.72;;;5.14;100.00
70954;BME280;58618;47.490;8.736;2023-02-04T05:50:54;98040.53;;;5.15;100.00
70954;BME280;58618;47.490;8.736;2023-02-04T05:53:21;98020.44;;;5.25;100.00
70954;BME280;58618;47.490;8.736;2023-02-04T05:55:49;98019.66;;;5.25;100.00
70954;BME280;58618;47.490;8.736;2023-02-04T05:58:18;98030.69;;;5.25;100.00
70954;BME280;58618;47.490;8.736;2023-02-04T06:00:45;98033.84;;;5.14;100.00
70954;BME280;58618;47.490;8.736;2023-02-04T06:03:12;98045.84;;;5.20;100.00
70954;BME280;58618;47.490;8.736;2023-02-04T06:05:41;98039.34;;;5.24;100.00
70954;BME280;58618;47.490;8.736;2023-02-04T06:08:09;98041.31;;;5.22;100.00
70954;BME280;58618;47.490;8.736;2023-02-04T06:10:36;98043.28;;;5.20;100.00
70954;BME280;58618;47.490;8.736;2023-02-04T06:13:03;98034.63;;;5.28;100.00
70954;BME280;58618;47.490;8.736;2023-02-04T06:15:31;98047.19;;;5.29;100.00
70954;BME280;58618;47.490;8.736;2023-02-04T06:17:59;98055.69;;;5.10;100.00
70954;BME280;58618;47.490;8.736;2023-02-04T06:20:26;98067.69;;;5.09;100.00
70954;BME280;58618;47.490;8.736;2023-02-04T06:22:54;98064.53;;;5.14;100.00
70954;BME280;58618;47.490;8.736;2023-02-04T06:25:22;98057.66;;;5.21;100.00
70954;BME280;58618;47.490;8.736;2023-02-04T06:27:49;98055.88;;;5.28;100.00
70954;BME280;58618;47.490;8.736;2023-02-04T06:30:17;98053.88;;;5.30;100.00
70954;BME280;58618;47.490;8.736;2023-02-04T06:32:44;98049.19;;;5.27;100.00
70954;BME280;58618;47.490;8.736;2023-02-04T06:35:11;98045.47;;;5.23;100.00
70954;BME280;58618;47.490;8.736;2023-02-04T06:37:40;98043.69;;;5.17;100.00
70954;BME280;58618;47.490;8.736;2023-02-04T06:40:10;98042.50;;;5.13;100.00
70954;BME280;58618;47.490;8.736;2023-02-04T06:42:38;98050.97;;;5.20;100.00
70954;BME280;58618;47.490;8.736;2023-02-04T06:45:07;98047.25;;;5.16;100.00
70954;BME280;58618;47.490;8.736;2023-02-04T06:47:34;98052.34;;;5.16;100.00
70954;BME280;58618;47.490;8.736;2023-02-04T06:50:01;98052.34;;;5.16;100.00
70954;BME280;58618;47.490;8.736;2023-02-04T06:52:28;98054.91;;;5.16;100.00
70954;BME280;58618;47.490;8.736;2023-02-04T06:54:56;98056.28;;;5.19;100.00
70954;BME280;58618;47.490;8.736;2023-02-04T06:57:24;98060.59;;;5.25;100.00
70954;BME280;58618;47.490;8.736;2023-02-04T06:59:52;98056.25;;;5.25;100.00
70954;BME280;58618;47.490;8.736;2023-02-04T07:02:19;98064.94;;;5.18;100.00
70954;BME280;58618;47.490;8.736;2023-02-04T07:04:46;98056.69;;;5.22;100.00
70954;BME280;58618;47.490;8.736;2023-02-04T07:07:14;98063.75;;;5.20;100.00
70954;BME280;58618;47.490;8.736;2023-02-04T07:09:41;98069.06;;;5.25;100.00
70954;BME280;58618;47.490;8.736;2023-02-04T07:12:09;98062.53;;;5.29;100.00
70954;BME280;58618;47.490;8.736;2023-02-04T07:14:37;98071.78;;;5.30;100.00
70954;BME280;58618;47.490;8.736;2023-02-04T07:17:04;98073.97;;;5.27;100.00
70954;BME280;58618;47.490;8.736;2023-02-04T07:19:32;98080.88;;;5.26;100.00
70954;BME280;58618;47.490;8.736;2023-02-04T07:22:01;98086.56;;;5.28;100.00
70954;BME280;58618;47.490;8.736;2023-02-04T07:24:29;98074.75;;;5.27;100.00
70954;BME280;58618;47.490;8.736;2023-02-04T07:26:56;98085.56;;;5.29;100.00
70954;BME280;58618;47.490;8.736;2023-02-04T07:29:23;98080.25;;;5.31;100.00
70954;BME280;58618;47.490;8.736;2023-02-04T07:31:52;98076.53;;;5.33;100.00
70954;BME280;58618;47.490;8.736;2023-02-04T07:34:20;98071.97;;;5.35;100.00
70954;BME280;58618;47.490;8.736;2023-02-04T07:36:47;98073.56;;;5.36;100.00
70954;BME280;58618;47.490;8.736;2023-02-04T07:39:14;98077.91;;;5.29;100.00
70954;BME280;58618;47.490;8.736;2023-02-04T07:41:42;98087.75;;;5.32;100.00
70954;BME280;58618;47.490;8.736;2023-02-04T07:44:09;98072.78;;;5.29;100.00
70954;BME280;58618;47.490;8.736;2023-02-04T07:46:36;98084.16;;;5.46;100.00
70954;BME280;58618;47.490;8.736;2023-02-04T07:49:05;98085.34;;;5.50;100.00
70954;BME280;58618;47.490;8.736;2023-02-04T07:51:33;98093.19;;;5.56;100.00
70954;BME280;58618;47.490;8.736;2023-02-04T07:54:00;98087.88;;;5.57;100.00
70954;BME280;58618;47.490;8.736;2023-02-04T07:56:27;98095.19;;;5.40;100.00
70954;BME280;58618;47.490;8.736;2023-02-04T07:58:59;98085.38;;;5.37;100.00
70954;BME280;58618;47.490;8.736;2023-02-04T08:01:27;98091.63;;;5.55;100.00
70954;BME280;58618;47.490;8.736;2023-02-04T08:03:54;98086.47;;;5.68;100.00
70954;BME280;58618;47.490;8.736;2023-02-04T08:06:24;98092.75;;;5.72;100.00
70954;BME280;58618;47.490;8.736;2023-02-04T08:08:51;98094.34;;;5.73;100.00
70954;BME280;58618;47.490;8.736;2023-02-04T08:11:19;98095.53;;;5.70;100.00
70954;BME280;58618;47.490;8.736;2023-02-04T08:13:46;98095.13;;;5.73;100.00
70954;BME280;58618;47.490;8.736;2023-02-04T08:16:15;98098.66;;;5.79;100.00
70954;BME280;58618;47.490;8.736;2023-02-04T08:18:42;98101.09;;;5.54;100.00
70954;BME280;58618;47.490;8.736;2023-02-04T08:21:09;98105.97;;;5.56;100.00
70954;BME280;58618;47.490;8.736;2023-02-04T08:23:37;98107.72;;;5.75;100.00
70954;BME280;58618;47.490;8.736;2023-02-04T08:26:07;98108.97;;;5.52;100.00
70954;BME280;58618;47.490;8.736;2023-02-04T08:28:35;98109.13;;;5.71;100.00
70954;BME280;58618;47.490;8.736;2023-02-04T08:31:03;98105.38;;;5.67;100.00
70954;BME280;58618;47.490;8.736;2023-02-04T08:33:32;98110.47;;;5.80;100.00
70954;BME280;58618;47.490;8.736;2023-02-04T08:35:59;98119.53;;;5.89;100.00
70954;BME280;58618;47.490;8.736;2023-02-04T08:38:26;98118.34;;;5.91;100.00
70954;BME280;58618;47.490;8.736;2023-02-04T08:40:55;98123.84;;;5.95;100.00
70954;BME280;58618;47.490;8.736;2023-02-04T08:43:22;98111.22;;;6.00;100.00
70954;BME280;58618;47.490;8.736;2023-02-04T08:45:49;98113.34;;;6.03;100.00
70954;BME280;58618;47.490;8.736;2023-02-04T08:48:17;98110.97;;;6.08;100.00
70954;BME280;58618;47.490;8.736;2023-02-04T08:50:44;98109.19;;;6.09;100.00
70954;BME280;58618;47.490;8.736;2023-02-04T08:53:11;98114.91;;;6.11;100.00
70954;BME280;58618;47.490;8.736;2023-02-04T08:55:38;98114.72;;;6.12;100.00
70954;BME280;58618;47.490;8.736;2023-02-04T08:58:07;98109.59;;;6.12;100.00
70954;BME280;58618;47.490;8.736;2023-02-04T09:00:34;98113.91;;;6.18;100.00
70954;BME280;58618;47.490;8.736;2023-02-04T09:03:01;98113.13;;;6.18;100.00
70954;BME280;58618;47.490;8.736;2023-02-04T09:05:28;98122.91;;;6.27;100.00
70954;BME280;58618;47.490;8.736;2023-02-04T09:07:58;98123.47;;;6.29;100.00
70954;BME280;58618;47.490;8.736;2023-02-04T09:10:25;98126.97;;;6.42;100.00
70954;BME280;58618;47.490;8.736;2023-02-04T09:12:52;98133.84;;;6.48;100.00
70954;BME280;58618;47.490;8.736;2023-02-04T09:15:23;98131.03;;;6.56;100.00
70954;BME280;58618;47.490;8.736;2023-02-04T09:17:51;98134.16;;;6.64;100.00
70954;BME280;58618;47.490;8.736;2023-02-04T09:20:26;98139.03;;;6.72;100.00
70954;BME280;58618;47.490;8.736;2023-02-04T09:22:54;98136.53;;;6.66;100.00
70954;BME280;58618;47.490;8.736;2023-02-04T09:25:22;98137.63;;;6.76;100.00
70954;BME280;58618;47.490;8.736;2023-02-04T09:27:49;98137.03;;;6.74;100.00
70954;BME280;58618;47.490;8.736;2023-02-04T09:30:16;98136.22;;;6.81;100.00
70954;BME280;58618;47.490;8.736;2023-02-04T09:32:45;98149.00;;;6.87;100.00
70954;BME280;58618;47.490;8.736;2023-02-04T09:35:12;98143.44;;;6.90;100.00
70954;BME280;58618;47.490;8.736;2023-02-04T09:37:39;98138.63;;;7.00;100.00
70954;BME280;58618;47.490;8.736;2023-02-04T09:40:09;98144.91;;;7.04;100.00
70954;BME280;58618;47.490;8.736;2023-02-04T09:42:39;98146.09;;;7.08;100.00
70954;BME280;58618;47.490;8.736;2023-02-04T09:45:09;98150.00;;;7.11;100.00
70954;BME280;58618;47.490;8.736;2023-02-04T09:47:40;98137.69;;;7.19;100.00
70954;BME280;58618;47.490;8.736;2023-02-04T09:50:13;98151.00;;;7.35;100.00
70954;BME280;58618;47.490;8.736;2023-02-04T09:52:41;98151.31;;;7.45;100.00
70954;BME280;58618;47.490;8.736;2023-02-04T09:55:12;98151.88;;;7.47;100.00
70954;BME280;58618;47.490;8.736;2023-02-04T09:57:39;98151.72;;;7.42;100.00
70954;BME280;58618;47.490;8.736;2023-02-04T10:00:14;98157.84;;;7.41;100.00
70954;BME280;58618;47.490;8.736;2023-02-04T10:02:43;98165.19;;;7.37;100.00
70954;BME280;58618;47.490;8.736;2023-02-04T10:05:14;98173.09;;;7.36;100.00
70954;BME280;58618;47.490;8.736;2023-02-04T10:07:42;98171.94;;;7.32;100.00
70954;BME280;58618;47.490;8.736;2023-02-04T10:10:14;98158.31;;;7.31;100.00
70954;BME280;58618;47.490;8.736;2023-02-04T10:12:43;98161.63;;;7.38;100.00
70954;BME280;58618;47.490;8.736;2023-02-04T10:15:12;98175.31;;;7.32;100.00
70954;BME280;58618;47.490;8.736;2023-02-04T10:17:40;98165.31;;;7.24;100.00
70954;BME280;58618;47.490;8.736;2023-02-04T10:20:14;98186.84;;;7.23;100.00
70954;BME280;58618;47.490;8.736;2023-02-04T10:22:41;98176.63;;;7.16;100.00
70954;BME280;58618;47.490;8.736;2023-02-04T10:25:11;98186.44;;;7.19;100.00
70954;BME280;58618;47.490;8.736;2023-02-04T10:27:49;98187.88;;;7.15;100.00
70954;BME280;58618;47.490;8.736;2023-02-04T10:30:19;98176.03;;;7.14;100.00
70954;BME280;58618;47.490;8.736;2023-02-04T10:32:48;98173.63;;;7.19;100.00
70954;BME280;58618;47.490;8.736;2023-02-04T10:35:19;98164.94;;;7.20;100.00
70954;BME280;58618;47.490;8.736;2023-02-04T10:37:47;98174.63;;;7.18;100.00
70954;BME280;58618;47.490;8.736;2023-02-04T10:40:28;98174.84;;;7.17;100.00
70954;BME280;58618;47.490;8.736;2023-02-04T10:42:55;98165.28;;;6.99;100.00
70954;BME280;58618;47.490;8.736;2023-02-04T10:45:25;98160.00;;;6.94;100.00
70954;BME280;58618;47.490;8.736;2023-02-04T10:47:53;98173.41;;;6.96;100.00
70954;BME280;58618;47.490;8.736;2023-02-04T10:50:24;98167.16;;;6.86;100.00
70954;BME280;58618;47.490;8.736;2023-02-04T10:52:53;98169.16;;;6.77;100.00
70954;BME280;58618;47.490;8.736;2023-02-04T10:55:41;98174.34;;;6.70;100.00
70954;BME280;58618;47.490;8.736;2023-02-04T10:58:10;98155.13;;;6.55;100.00
70954;BME280;58618;47.490;8.736;2023-02-04T11:00:37;98148.69;;;6.39;100.00
70954;BME280;58618;47.490;8.736;2023-02-04T11:03:09;98155.06;;;6.61;100.00
70954;BME280;58618;47.490;8.736;2023-02-04T11:05:38;98157.34;;;6.45;100.00
70954;BME280;58618;47.490;8.736;2023-02-04T11:08:19;98162.25;;;6.46;100.00
70954;BME280;58618;47.490;8.736;2023-02-04T11:10:49;98174.38;;;6.64;100.00
70954;BME280;58618;47.490;8.736;2023-02-04T11:13:23;98169.91;;;6.84;100.00
70954;BME280;58618;47.490;8.736;2023-02-04T11:16:08;98175.06;;;6.84;100.00
70954;BME280;58618;47.490;8.736;2023-02-04T11:18:46;98160.59;;;6.58;100.00
70954;BME280;58618;47.490;8.736;2023-02-04T11:21:24;98170.44;;;6.61;100.00
70954;BME280;58618;47.490;8.736;2023-02-04T11:24:19;98172.03;;;6.56;100.00
70954;BME280;58618;47.490;8.736;2023-02-04T11:26:49;98170.97;;;6.39;100.00
70954;BME280;58618;47.490;8.736;2023-02-04T11:29:26;98173.44;;;6.07;100.00
70954;BME280;58618;47.490;8.736;2023-02-04T11:32:02;98180.97;;;6.02;100.00
70954;BME280;58618;47.490;8.736;2023-02-04T11:34:45;98178.59;;;5.94;100.00
70954;BME280;58618;47.490;8.736;2023-02-04T11:37:32;98171.53;;;5.89;100.00
70954;BME280;58618;47.490;8.736;2023-02-04T11:40:00;98176.22;;;6.06;100.00
70954;BME280;58618;47.490;8.736;2023-02-04T11:42:31;98163.16;;;6.14;100.00
70954;BME280;58618;47.490;8.736;2023-02-04T11:45:12;98176.56;;;6.22;100.00
70954;BME280;58618;47.490;8.736;2023-02-04T11:47:40;98164.53;;;6.23;100.00
70954;BME280;58618;47.490;8.736;2023-02-04T11:50:16;98162.94;;;6.22;100.00
70954;BME280;58618;47.490;8.736;2023-02-04T11:52:47;98160.53;;;6.33;100.00
70954;BME280;58618;47.490;8.736;2023-02-04T11:55:14;98158.97;;;6.32;100.00
70954;BME280;58618;47.490;8.736;2023-02-04T11:57:44;98160.72;;;6.39;100.00
70954;BME280;58618;47.490;8.736;2023-02-04T12:00:13;98169.72;;;6.54;100.00
70954;BME280;58618;47.490;8.736;2023-02-04T12:02:43;98143.13;;;6.49;100.00
70954;BME280;58618;47.490;8.736;2023-02-04T12:05:13;98171.84;;;6.57;100.00
70954;BME280;58618;47.490;8.736;2023-02-04T12:07:41;98183.47;;;6.60;100.00
70954;BME280;58618;47.490;8.736;2023-02-04T12:10:22;98186.56;;;6.75;99.63
70954;BME280;58618;47.490;8.736;2023-02-04T12:12:52;98185.41;;;6.71;98.09
70954;BME280;58618;47.490;8.736;2023-02-04T12:15:23;98189.41;;;6.60;98.07
70954;BME280;58618;47.490;8.736;2023-02-04T12:18:01;98177.97;;;6.56;99.49
70954;BME280;58618;47.490;8.736;2023-02-04T12:20:29;98179.81;;;6.81;98.35
70954;BME280;58618;47.490;8.736;2023-02-04T12:22:56;98179.44;;;7.08;96.73
70954;BME280;58618;47.490;8.736;2023-02-04T12:25:25;98187.47;;;7.18;95.30
70954;BME280;58618;47.490;8.736;2023-02-04T12:27:53;98180.63;;;7.31;95.28
70954;BME280;58618;47.490;8.736;2023-02-04T12:30:21;98170.00;;;7.02;94.19
70954;BME280;58618;47.490;8.736;2023-02-04T12:32:49;98176.13;;;7.26;94.94
70954;BME280;58618;47.490;8.736;2023-02-04T12:35:16;98167.25;;;7.29;94.21
70954;BME280;58618;47.490;8.736;2023-02-04T12:37:44;98175.09;;;7.34;94.54
70954;BME280;58618;47.490;8.736;2023-02-04T12:40:14;98153.31;;;7.18;92.35
70954;BME280;58618;47.490;8.736;2023-02-04T12:42:43;98162.75;;;7.67;91.38
70954;BME280;58618;47.490;8.736;2023-02-04T12:45:11;98174.13;;;7.96;89.14
70954;BME280;58618;47.490;8.736;2023-02-04T12:47:39;98171.56;;;8.14;87.60
70954;BME280;58618;47.490;8.736;2023-02-04T12:50:08;98166.88;;;8.41;89.12
70954;BME280;58618;47.490;8.736;2023-02-04T12:52:36;98170.31;;;8.53;85.98
70954;BME280;58618;47.490;8.736;2023-02-04T12:55:05;98169.00;;;8.62;87.64
70954;BME280;58618;47.490;8.736;2023-02-04T12:57:33;98151.59;;;8.46;86.90
70954;BME280;58618;47.490;8.736;2023-02-04T13:00:02;98170.34;;;8.65;85.26
70954;BME280;58618;47.490;8.736;2023-02-04T13:02:30;98167.03;;;8.28;81.83
70954;BME280;58618;47.490;8.736;2023-02-04T13:04:57;98174.56;;;7.93;83.44
70954;BME280;58618;47.490;8.736;2023-02-04T13:07:24;98183.44;;;7.72;84.86